Aeroporto :
LOGIN :

Iscrizione | Disclaimer

   EN    FR    IT 

 










Sommario :    VFR   VFR Marginale   IFR   IFR Intensivo   IFR Molto Intensivo
Visibilità : 
Base nubi : 
>= 8 km
>= 3000ft
5 / 8 km
1000 / 3000 ft
1500m / 5 km
500 / 1000 ft
800 / 1500m
200 / 500 ft
< 800m
< 200 ft
Simboli :   Temporali  Nebbia  Neve Forte  Precipitazioni Forti  Vento > 20 kt
SIGMETs :   Varie  Temporali  Ghiacco  Turbolenza  Onda orograficha  Ceneri Vulcaniche







- Altitudine del aeroporto : 39 ft
- Codice IATA : CTA


LICC - Catania Fontanarossa

ULTIMO METAR :
  • 241450Z 08010KT 040V110 CAVOK 27/22 Q1015

METARs OBSOLETI :
  • 241420Z 08011KT CAVOK 27/23 Q1015
  • 241350Z 08011KT CAVOK 28/22 Q1015
  • 241320Z 09012KT CAVOK 27/22 Q1015
  • 241250Z 08012KT CAVOK 28/22 Q1015
  • 241220Z 08012KT CAVOK 28/22 Q1015

TAF TAF LICC
Valido dal 24 a 12 ore il 25 a 12 ore UTC


241100Z 2412/2512 08012KT 9999 FEW030
BECMG 2418/2420 VRB05KT
BECMG 2510/2512 12010KT
Nessun NOTAM noto per questo aeroporto.



MetMap, La meteo Aeronautica in un colpo d'occhio ! - Copyright ORBIFLY Dicembre 2007 - Disclaimer

ORBIFLY MET'MAP TEAM :

Programmazione e sviluppo : Alexandra Zaïnal
Concezione e sviluppo : Baudouin d'Aumeries
Co-Programmazione e sviluppo : Marc-Olivier Méhu
Supporto tecnico e logistico : Manuel Goepfert
Aiuto per la traduzione : Arnaldo La Scala

Contatto : metmap@orbifly.com




FONTI E CREDITI :

   NOAA